createdAt,value
2023-04-25T00:00:45.335Z,506.00
2023-04-25T00:01:45.400Z,505.00
2023-04-25T00:02:45.559Z,501.00
2023-04-25T00:03:45.688Z,504.00
2023-04-25T00:04:45.876Z,509.00
2023-04-25T00:05:45.622Z,510.00
2023-04-25T00:06:45.606Z,507.00
2023-04-25T00:07:45.694Z,512.00
2023-04-25T00:08:45.700Z,507.00
2023-04-25T00:09:45.768Z,510.00
2023-04-25T00:10:46.624Z,506.00
2023-04-25T00:11:45.858Z,516.00
2023-04-25T00:12:45.875Z,507.00
2023-04-25T00:13:45.981Z,511.00
2023-04-25T00:14:45.974Z,516.00
2023-04-25T00:15:46.075Z,511.00
2023-04-25T00:16:46.099Z,510.00
2023-04-25T00:17:46.134Z,522.00
2023-04-25T00:18:46.182Z,519.00
2023-04-25T00:19:46.259Z,521.00
2023-04-25T00:20:46.272Z,526.00
2023-04-25T00:21:46.329Z,526.00
2023-04-25T00:22:46.385Z,524.00
2023-04-25T00:23:46.414Z,520.00
2023-04-25T00:24:46.451Z,524.00
2023-04-25T00:25:46.521Z,522.00
2023-04-25T00:26:46.582Z,527.00
2023-04-25T00:27:46.599Z,525.00
2023-04-25T00:28:46.645Z,520.00
2023-04-25T00:29:46.710Z,527.00
2023-04-25T00:30:46.741Z,525.00
2023-04-25T00:31:46.875Z,517.00
2023-04-25T00:32:46.938Z,517.00
2023-04-25T00:33:46.900Z,524.00
2023-04-25T00:34:46.956Z,523.00
2023-04-25T00:35:46.966Z,526.00
2023-04-25T00:36:47.081Z,526.00
2023-04-25T00:37:47.093Z,524.00
2023-04-25T00:38:47.130Z,526.00
2023-04-25T00:39:47.155Z,527.00
2023-04-25T00:40:47.190Z,529.00
2023-04-25T00:41:47.265Z,532.00
2023-04-25T00:42:47.283Z,533.00
2023-04-25T00:43:47.355Z,530.00
2023-04-25T00:44:47.392Z,536.00
2023-04-25T00:45:47.424Z,535.00
2023-04-25T00:46:47.539Z,540.00
2023-04-25T00:47:47.590Z,539.00
2023-04-25T00:48:47.577Z,532.00
2023-04-25T00:49:47.643Z,535.00
2023-04-25T00:50:47.687Z,543.00
2023-04-25T00:51:47.726Z,544.00
2023-04-25T00:52:47.774Z,550.00
2023-04-25T00:53:47.842Z,539.00
2023-04-25T00:54:47.875Z,549.00
2023-04-25T00:55:47.913Z,548.00
2023-04-25T00:56:47.974Z,553.00
2023-04-25T00:57:48.014Z,552.00
2023-04-25T00:58:48.038Z,553.00
2023-04-25T00:59:48.086Z,555.00
2023-04-25T01:00:48.207Z,556.00
2023-04-25T01:01:48.232Z,556.00
2023-04-25T01:02:48.460Z,559.00
2023-04-25T01:03:48.408Z,563.00
2023-04-25T01:04:48.340Z,560.00
2023-04-25T01:05:48.398Z,560.00
2023-04-25T01:06:48.452Z,557.00
2023-04-25T01:07:48.498Z,564.00
2023-04-25T01:08:48.517Z,566.00
2023-04-25T01:09:48.617Z,564.00
2023-04-25T01:10:48.614Z,559.00
2023-04-25T01:11:48.678Z,566.00
2023-04-25T01:12:48.774Z,571.00
2023-04-25T01:13:49.159Z,573.00
2023-04-25T01:14:48.833Z,573.00
2023-04-25T01:15:48.868Z,575.00
2023-04-25T01:16:48.955Z,575.00
2023-04-25T01:17:49.043Z,575.00
2023-04-25T01:18:49.064Z,570.00
2023-04-25T01:19:49.101Z,577.00
2023-04-25T01:20:49.154Z,577.00
2023-04-25T01:21:49.194Z,575.00
2023-04-25T01:22:49.252Z,582.00
2023-04-25T01:23:49.502Z,581.00
2023-04-25T01:24:49.340Z,576.00
2023-04-25T01:25:49.377Z,580.00
2023-04-25T01:26:49.440Z,579.00
2023-04-25T01:27:49.553Z,575.00
2023-04-25T01:28:49.493Z,577.00
2023-04-25T01:29:49.577Z,584.00
2023-04-25T01:30:49.629Z,581.00
2023-04-25T01:31:49.682Z,582.00
2023-04-25T01:32:49.753Z,585.00
2023-04-25T01:33:49.978Z,591.00
2023-04-25T01:34:49.834Z,584.00
2023-04-25T01:35:49.861Z,591.00
2023-04-25T01:36:49.914Z,592.00
2023-04-25T01:37:49.997Z,594.00
2023-04-25T01:38:50.029Z,597.00
2023-04-25T01:39:50.111Z,590.00
2023-04-25T01:40:50.141Z,594.00
2023-04-25T01:41:50.187Z,594.00
2023-04-25T01:42:50.238Z,587.00
2023-04-25T01:43:50.449Z,590.00
2023-04-25T01:44:50.385Z,595.00
2023-04-25T01:45:50.436Z,589.00
2023-04-25T01:46:50.480Z,600.00
2023-04-25T01:47:50.610Z,600.00
2023-04-25T01:48:50.583Z,601.00
2023-04-25T01:49:50.651Z,595.00
2023-04-25T01:50:50.722Z,596.00
2023-04-25T01:51:50.751Z,598.00
2023-04-25T01:52:50.809Z,590.00
2023-04-25T01:53:51.066Z,595.00
2023-04-25T01:54:50.929Z,591.00
2023-04-25T01:55:50.953Z,600.00
2023-04-25T01:56:50.990Z,594.00
2023-04-25T01:57:51.053Z,585.00
2023-04-25T01:58:51.122Z,593.00
2023-04-25T01:59:51.150Z,598.00
2023-04-25T02:00:51.226Z,598.00
2023-04-25T02:01:51.381Z,594.00
2023-04-25T02:02:51.404Z,588.00
2023-04-25T02:03:51.804Z,592.00
2023-04-25T02:04:51.632Z,593.00
2023-04-25T02:05:51.510Z,593.00
2023-04-25T02:06:51.562Z,589.00
2023-04-25T02:07:51.645Z,592.00
2023-04-25T02:08:51.656Z,588.00
2023-04-25T02:09:51.722Z,587.00
2023-04-25T02:10:51.803Z,597.00
2023-04-25T02:11:51.859Z,593.00
2023-04-25T02:12:51.908Z,593.00
2023-04-25T02:13:52.178Z,590.00
2023-04-25T02:14:52.041Z,590.00
2023-04-25T02:15:52.162Z,597.00
2023-04-25T02:16:52.294Z,592.00
2023-04-25T02:17:52.270Z,599.00
2023-04-25T02:18:52.262Z,593.00
2023-04-25T02:19:52.342Z,592.00
2023-04-25T02:20:52.404Z,597.00
2023-04-25T02:21:52.416Z,598.00
2023-04-25T02:22:52.483Z,596.00
2023-04-25T02:23:52.737Z,598.00
2023-04-25T02:24:52.592Z,595.00
2023-04-25T02:25:52.669Z,599.00
2023-04-25T02:26:52.730Z,600.00
2023-04-25T02:27:52.774Z,598.00
2023-04-25T02:28:52.837Z,605.00
2023-04-25T02:29:52.909Z,602.00
2023-04-25T02:30:53.032Z,603.00
2023-04-25T02:31:53.110Z,600.00
2023-04-25T02:32:53.141Z,602.00
2023-04-25T02:33:53.339Z,597.00
2023-04-25T02:34:53.164Z,603.00
2023-04-25T02:35:53.240Z,606.00
2023-04-25T02:36:53.314Z,605.00
2023-04-25T02:37:53.393Z,608.00
2023-04-25T02:38:53.438Z,606.00
2023-04-25T02:39:53.473Z,611.00
2023-04-25T02:40:53.561Z,612.00
2023-04-25T02:41:53.601Z,621.00
2023-04-25T02:42:53.639Z,612.00
2023-04-25T02:43:53.692Z,614.00
2023-04-25T02:44:53.780Z,616.00
2023-04-25T02:45:53.836Z,618.00
2023-04-25T02:46:54.047Z,617.00
2023-04-25T02:47:54.012Z,630.00
2023-04-25T02:48:54.007Z,624.00
2023-04-25T02:49:54.089Z,630.00
2023-04-25T02:50:54.139Z,627.00
2023-04-25T02:51:54.189Z,632.00
2023-04-25T02:52:54.264Z,627.00
2023-04-25T02:53:54.312Z,622.00
2023-04-25T02:54:54.403Z,630.00
2023-04-25T02:55:54.459Z,622.00
2023-04-25T02:56:54.486Z,628.00
2023-04-25T02:57:54.578Z,627.00
2023-04-25T02:58:54.646Z,627.00
2023-04-25T02:59:54.685Z,631.00
2023-04-25T03:00:54.781Z,634.00
2023-04-25T03:01:54.804Z,638.00
2023-04-25T03:02:54.992Z,647.00
2023-04-25T03:03:55.318Z,644.00
2023-04-25T03:04:54.970Z,650.00
2023-04-25T03:05:55.029Z,654.00
2023-04-25T03:06:55.126Z,659.00
2023-04-25T03:07:55.174Z,656.00
2023-04-25T03:08:55.240Z,659.00
2023-04-25T03:09:55.320Z,654.00
2023-04-25T03:10:55.383Z,662.00
2023-04-25T03:11:55.405Z,656.00
2023-04-25T03:12:55.487Z,659.00
2023-04-25T03:13:55.578Z,670.00
2023-04-25T03:14:55.600Z,681.00
2023-04-25T03:15:55.676Z,665.00
2023-04-25T03:16:55.807Z,664.00
2023-04-25T03:17:55.858Z,690.00
2023-04-25T03:18:55.876Z,690.00
2023-04-25T03:19:55.940Z,697.00
2023-04-25T03:20:55.972Z,712.00
2023-04-25T03:21:56.026Z,717.00
2023-04-25T03:22:56.074Z,735.00
2023-04-25T03:23:56.141Z,727.00
2023-04-25T03:24:56.188Z,769.00
2023-04-25T03:25:56.239Z,762.00
2023-04-25T03:26:56.297Z,769.00
2023-04-25T03:27:56.341Z,784.00
2023-04-25T03:28:56.426Z,822.00
2023-04-25T03:29:56.452Z,829.00
2023-04-25T03:30:56.486Z,829.00
2023-04-25T03:31:56.577Z,839.00
2023-04-25T03:32:56.645Z,848.00
2023-04-25T03:33:56.623Z,853.00
2023-04-25T03:34:56.690Z,865.00
2023-04-25T03:35:56.691Z,863.00
2023-04-25T03:36:56.729Z,861.00
2023-04-25T03:37:56.795Z,868.00
2023-04-25T03:38:56.825Z,876.00
2023-04-25T03:39:56.863Z,878.00
2023-04-25T03:40:56.892Z,875.00
2023-04-25T03:41:56.918Z,877.00
2023-04-25T03:42:56.955Z,886.00
2023-04-25T03:43:56.975Z,866.00
2023-04-25T03:44:56.988Z,880.00
2023-04-25T03:45:57.031Z,876.00
2023-04-25T03:46:57.047Z,884.00
2023-04-25T03:47:57.100Z,886.00
2023-04-25T03:48:57.073Z,907.00
2023-04-25T03:49:57.091Z,881.00
2023-04-25T03:50:57.116Z,885.00
2023-04-25T03:51:57.147Z,887.00
2023-04-25T03:52:57.150Z,894.00
2023-04-25T03:53:57.153Z,869.00
2023-04-25T03:54:57.128Z,877.00
2023-04-25T03:55:57.134Z,915.00
2023-04-25T03:56:57.158Z,880.00
2023-04-25T03:57:57.174Z,906.00
2023-04-25T03:58:57.163Z,896.00
2023-04-25T03:59:57.169Z,881.00
2023-04-25T04:00:57.189Z,891.00
2023-04-25T04:01:57.170Z,901.00
2023-04-25T04:02:57.321Z,901.00
2023-04-25T04:03:57.678Z,885.00
2023-04-25T04:04:57.297Z,883.00
2023-04-25T04:05:57.259Z,894.00
2023-04-25T04:06:57.214Z,882.00
2023-04-25T04:07:57.179Z,889.00
2023-04-25T04:08:57.204Z,893.00
2023-04-25T04:09:57.175Z,889.00
2023-04-25T04:10:57.181Z,870.00
2023-04-25T04:11:57.188Z,892.00
2023-04-25T04:12:57.158Z,902.00
2023-04-25T04:13:57.159Z,903.00
2023-04-25T04:14:57.175Z,882.00
2023-04-25T04:15:57.220Z,878.00
2023-04-25T04:16:57.157Z,880.00
2023-04-25T04:17:57.197Z,890.00
2023-04-25T04:18:57.134Z,890.00
2023-04-25T04:19:57.141Z,886.00
2023-04-25T04:20:57.110Z,901.00
2023-04-25T04:21:57.115Z,881.00
2023-04-25T04:22:57.084Z,895.00
2023-04-25T04:23:57.084Z,877.00
2023-04-25T04:24:57.077Z,899.00
2023-04-25T04:25:57.063Z,897.00
2023-04-25T04:26:57.031Z,892.00
2023-04-25T04:27:57.039Z,890.00
2023-04-25T04:28:56.997Z,903.00
2023-04-25T04:29:56.980Z,895.00
2023-04-25T04:30:56.993Z,897.00
2023-04-25T04:31:57.022Z,894.00
2023-04-25T04:32:57.085Z,896.00
2023-04-25T04:33:56.937Z,899.00
2023-04-25T04:34:56.907Z,901.00
2023-04-25T04:35:56.887Z,896.00
2023-04-25T04:36:56.881Z,900.00
2023-04-25T04:37:56.861Z,895.00
2023-04-25T04:38:56.873Z,884.00
2023-04-25T04:39:56.835Z,894.00
2023-04-25T04:40:56.842Z,887.00
2023-04-25T04:41:56.792Z,893.00
2023-04-25T04:42:56.780Z,903.00
2023-04-25T04:43:56.762Z,887.00
2023-04-25T04:44:56.775Z,897.00
2023-04-25T04:45:56.751Z,885.00
2023-04-25T04:46:56.844Z,895.00
2023-04-25T04:47:56.823Z,890.00
2023-04-25T04:48:56.707Z,885.00
2023-04-25T04:49:56.718Z,891.00
2023-04-25T04:50:56.705Z,888.00
2023-04-25T04:51:58.399Z,896.00
2023-04-25T04:52:56.636Z,889.00
2023-04-25T04:53:56.618Z,898.00
2023-04-25T04:54:56.603Z,884.00
2023-04-25T04:55:56.622Z,890.00
2023-04-25T04:56:56.576Z,904.00
2023-04-25T04:57:56.554Z,898.00
2023-04-25T04:58:56.558Z,893.00
2023-04-25T04:59:56.537Z,911.00
2023-04-25T05:01:03.586Z,898.00
2023-04-25T05:01:56.494Z,901.00
2023-04-25T05:02:56.626Z,903.00
2023-04-25T05:03:57.033Z,905.00
2023-04-25T05:04:56.472Z,912.00
2023-04-25T05:05:56.469Z,906.00
2023-04-25T05:06:56.449Z,894.00
2023-04-25T05:07:56.437Z,903.00
2023-04-25T05:08:56.421Z,913.00
2023-04-25T05:09:56.367Z,902.00
2023-04-25T05:10:56.393Z,894.00
2023-04-25T05:11:56.350Z,900.00
2023-04-25T05:12:56.346Z,889.00
2023-04-25T05:13:56.331Z,911.00
2023-04-25T05:14:56.318Z,892.00
2023-04-25T05:15:56.278Z,891.00
2023-04-25T05:16:56.341Z,907.00
2023-04-25T05:17:56.294Z,893.00
2023-04-25T05:18:56.217Z,895.00
2023-04-25T05:19:56.270Z,902.00
2023-04-25T05:20:56.179Z,907.00
2023-04-25T05:21:56.171Z,899.00
2023-04-25T05:22:56.167Z,907.00
2023-04-25T05:23:56.141Z,899.00
2023-04-25T05:24:56.382Z,894.00
2023-04-25T05:25:56.099Z,898.00
2023-04-25T05:26:56.076Z,902.00
2023-04-25T05:27:56.074Z,905.00
2023-04-25T05:28:56.060Z,903.00
2023-04-25T05:29:56.272Z,892.00
2023-04-25T05:30:55.994Z,910.00
2023-04-25T05:31:56.010Z,922.00
2023-04-25T05:32:56.014Z,912.00
2023-04-25T05:33:55.986Z,928.00
2023-04-25T05:34:56.325Z,908.00
2023-04-25T05:35:55.952Z,943.00
2023-04-25T05:36:55.927Z,959.00
2023-04-25T05:37:55.873Z,957.00
2023-04-25T05:38:55.873Z,945.00
2023-04-25T05:39:56.323Z,998.00
2023-04-25T05:40:55.844Z,947.00
2023-04-25T05:41:55.834Z,1060.00
2023-04-25T05:42:55.800Z,1036.00
2023-04-25T05:43:57.906Z,1050.00
2023-04-25T05:44:55.956Z,1126.00
2023-04-25T05:46:03.080Z,1143.00
2023-04-25T05:46:55.994Z,1145.00
2023-04-25T05:47:56.007Z,1192.00
2023-04-25T05:48:55.945Z,1239.00
2023-04-25T05:49:55.917Z,2179.00
2023-04-25T05:50:55.909Z,3045.00
2023-04-25T05:51:55.886Z,2555.00
2023-04-25T05:52:55.870Z,2395.00
2023-04-25T05:53:55.860Z,2361.00
2023-04-25T05:54:55.814Z,2239.00
2023-04-25T05:55:55.897Z,2272.00
2023-04-25T05:56:55.785Z,2220.00
2023-04-25T05:57:55.796Z,2245.00
2023-04-25T05:58:55.748Z,2203.00
2023-04-25T05:59:55.733Z,2239.00
2023-04-25T06:00:55.784Z,2304.00
2023-04-25T06:01:55.723Z,2244.00
2023-04-25T06:02:55.827Z,2235.00
2023-04-25T06:03:55.909Z,2476.00
2023-04-25T06:04:55.758Z,2586.00
2023-04-25T06:05:55.707Z,2864.00
2023-04-25T06:06:55.551Z,3013.00
2023-04-25T06:07:55.532Z,3105.00
2023-04-25T06:08:55.524Z,2760.00
2023-04-25T06:09:55.491Z,2622.00
2023-04-25T06:10:55.534Z,2502.00
2023-04-25T06:11:55.428Z,2282.00
2023-04-25T06:12:55.441Z,2273.00
2023-04-25T06:13:55.413Z,2311.00
2023-04-25T06:14:55.372Z,2236.00
2023-04-25T06:15:55.422Z,2268.00
2023-04-25T06:16:55.378Z,2184.00
2023-04-25T06:17:55.400Z,1954.00
2023-04-25T06:18:55.314Z,1882.00
2023-04-25T06:19:55.279Z,1864.00
2023-04-25T06:20:55.293Z,1899.00
2023-04-25T06:21:55.235Z,1786.00
2023-04-25T06:22:55.264Z,1687.00
2023-04-25T06:23:55.241Z,1764.00
2023-04-25T06:24:55.240Z,1897.00
2023-04-25T06:25:55.285Z,1644.00
2023-04-25T06:26:55.300Z,1532.00
2023-04-25T06:27:55.340Z,1501.00
2023-04-25T06:28:55.353Z,1538.00
2023-04-25T06:29:55.352Z,1436.00
2023-04-25T06:30:55.366Z,1410.00
2023-04-25T06:31:55.357Z,1376.00
2023-04-25T06:32:55.399Z,1372.00
2023-04-25T06:33:55.325Z,1384.00
2023-04-25T06:34:55.355Z,1344.00
2023-04-25T06:35:55.386Z,1351.00
2023-04-25T06:36:55.396Z,1485.00
2023-04-25T06:37:55.428Z,1482.00
2023-04-25T06:38:55.472Z,1260.00
2023-04-25T06:39:55.518Z,1200.00
2023-04-25T06:40:55.826Z,1437.00
2023-04-25T06:41:55.572Z,1496.00
2023-04-25T06:42:55.616Z,1490.00
2023-04-25T06:43:55.613Z,1742.00
2023-04-25T06:44:55.722Z,1694.00
2023-04-25T06:45:55.820Z,1734.00
2023-04-25T06:46:55.773Z,1775.00
2023-04-25T06:47:55.889Z,1615.00
2023-04-25T06:48:55.840Z,1691.00
2023-04-25T06:49:55.862Z,1703.00
2023-04-25T06:50:55.934Z,1756.00
2023-04-25T06:51:55.951Z,1810.00
2023-04-25T06:52:55.989Z,1862.00
2023-04-25T06:53:55.988Z,1801.00
2023-04-25T06:54:55.997Z,1991.00
2023-04-25T06:55:56.057Z,2012.00
2023-04-25T06:56:56.091Z,1979.00
2023-04-25T06:57:56.109Z,2058.00
2023-04-25T06:58:56.101Z,1873.00
2023-04-25T06:59:56.121Z,1879.00
2023-04-25T07:00:56.223Z,1871.00
2023-04-25T07:01:56.190Z,1722.00
2023-04-25T07:02:56.334Z,1771.00
2023-04-25T07:03:56.374Z,1994.00
2023-04-25T07:04:56.277Z,2006.00
2023-04-25T07:05:56.228Z,2002.00
2023-04-25T07:06:56.354Z,1925.00
2023-04-25T07:07:56.249Z,1970.00
2023-04-25T07:08:56.276Z,1967.00
2023-04-25T07:09:56.303Z,1967.00
2023-04-25T07:10:56.290Z,1723.00
2023-04-25T07:11:56.351Z,1931.00
2023-04-25T07:12:56.326Z,2045.00
2023-04-25T07:13:56.405Z,2244.00
2023-04-25T07:14:56.477Z,2336.00
2023-04-25T07:15:57.538Z,2321.00
2023-04-25T07:16:56.343Z,2340.00
2023-04-25T07:17:56.463Z,2358.00
2023-04-25T07:18:56.234Z,2425.00
2023-04-25T07:19:56.205Z,2645.00
2023-04-25T07:20:56.186Z,2437.00
2023-04-25T07:21:56.338Z,2496.00
2023-04-25T07:22:56.137Z,2512.00
2023-04-25T07:23:56.063Z,2538.00
2023-04-25T07:24:56.073Z,2481.00
2023-04-25T07:25:56.054Z,2694.00
2023-04-25T07:26:56.387Z,2801.00
2023-04-25T07:27:55.967Z,2767.00
2023-04-25T07:28:55.944Z,2877.00
2023-04-25T07:29:55.892Z,2893.00
2023-04-25T07:30:55.849Z,2966.00
2023-04-25T07:31:55.949Z,2688.00
2023-04-25T07:32:55.790Z,2564.00
2023-04-25T07:33:55.741Z,2484.00
2023-04-25T07:34:55.753Z,2464.00
2023-04-25T07:35:55.728Z,2455.00
2023-04-25T07:36:55.946Z,2486.00
2023-04-25T07:37:55.734Z,2461.00
2023-04-25T07:38:55.697Z,2477.00
2023-04-25T07:39:55.666Z,2453.00
2023-04-25T07:40:55.733Z,2676.00
2023-04-25T07:41:55.859Z,2850.00
2023-04-25T07:42:55.664Z,2853.00
2023-04-25T07:43:56.690Z,2757.00
2023-04-25T07:44:55.638Z,2494.00
2023-04-25T07:45:55.623Z,2378.00
2023-04-25T07:46:55.914Z,2336.00
2023-04-25T07:47:55.652Z,2365.00
2023-04-25T07:48:55.647Z,2235.00
2023-04-25T07:49:55.623Z,2196.00
2023-04-25T07:50:55.646Z,2018.00
2023-04-25T07:51:55.643Z,1854.00
2023-04-25T07:52:55.681Z,1667.00
2023-04-25T07:53:55.674Z,1591.00
2023-04-25T07:54:55.699Z,1603.00
2023-04-25T07:55:55.708Z,1510.00
2023-04-25T07:56:55.753Z,1292.00
2023-04-25T07:57:55.784Z,1454.00
2023-04-25T07:58:55.785Z,1413.00
2023-04-25T07:59:55.780Z,1583.00
2023-04-25T08:00:55.802Z,1332.00
2023-04-25T08:01:55.891Z,1249.00
2023-04-25T08:02:56.037Z,1166.00
2023-04-25T08:03:55.995Z,1116.00
2023-04-25T08:04:55.966Z,1313.00
2023-04-25T08:05:55.949Z,1186.00
2023-04-25T08:06:55.972Z,1115.00
2023-04-25T08:07:55.983Z,1047.00
2023-04-25T08:08:56.000Z,1125.00
2023-04-25T08:09:56.024Z,1217.00
2023-04-25T08:10:56.051Z,1251.00
2023-04-25T08:11:56.424Z,1292.00
2023-04-25T08:12:56.135Z,1161.00
2023-04-25T08:13:56.114Z,1008.00
2023-04-25T08:14:56.172Z,959.00
2023-04-25T08:15:56.238Z,664.00
2023-04-25T08:16:56.215Z,658.00
2023-04-25T08:17:56.375Z,599.00
2023-04-25T08:18:56.312Z,631.00
2023-04-25T08:19:56.313Z,636.00
2023-04-25T08:20:56.394Z,617.00
2023-04-25T08:21:56.398Z,643.00
2023-04-25T08:22:56.433Z,680.00
2023-04-25T08:23:56.453Z,659.00
2023-04-25T08:24:56.492Z,797.00
2023-04-25T08:25:56.534Z,675.00
2023-04-25T08:26:56.940Z,717.00
2023-04-25T08:27:56.618Z,694.00
2023-04-25T08:28:56.631Z,587.00
2023-04-25T08:29:57.291Z,509.00
2023-04-25T08:30:56.724Z,543.00
2023-04-25T08:31:56.943Z,572.00
2023-04-25T08:32:56.777Z,544.00
2023-04-25T08:33:56.821Z,520.00
2023-04-25T08:34:56.892Z,499.00
2023-04-25T08:35:57.059Z,500.00
2023-04-25T08:36:57.416Z,470.00
2023-04-25T08:37:57.025Z,497.00
2023-04-25T08:38:57.341Z,500.00
2023-04-25T08:39:57.082Z,511.00
2023-04-25T08:40:57.133Z,509.00
2023-04-25T08:41:57.120Z,502.00
2023-04-25T08:42:57.219Z,500.00
2023-04-25T08:43:57.175Z,499.00
2023-04-25T08:44:57.152Z,500.00
2023-04-25T08:45:57.138Z,507.00
2023-04-25T08:46:57.462Z,541.00
2023-04-25T08:47:57.182Z,545.00
2023-04-25T08:48:57.882Z,564.00
2023-04-25T08:49:57.141Z,560.00
2023-04-25T08:50:57.163Z,609.00
2023-04-25T08:51:57.418Z,800.00
2023-04-25T08:52:57.137Z,916.00
2023-04-25T08:53:58.806Z,1106.00
2023-04-25T08:54:58.092Z,1120.00
2023-04-25T08:55:57.150Z,1230.00
2023-04-25T08:56:57.083Z,1199.00
2023-04-25T08:57:57.126Z,1099.00
2023-04-25T08:58:57.042Z,1059.00
2023-04-25T08:59:57.036Z,983.00
2023-04-25T09:00:57.162Z,981.00
2023-04-25T09:01:57.398Z,951.00
2023-04-25T09:02:57.062Z,1035.00
2023-04-25T09:03:57.022Z,1137.00
2023-04-25T09:04:56.945Z,1415.00
2023-04-25T09:05:56.970Z,1863.00
2023-04-25T09:06:57.250Z,1570.00
2023-04-25T09:07:57.106Z,1696.00
2023-04-25T09:08:57.149Z,1682.00
2023-04-25T09:09:57.125Z,2174.00
2023-04-25T09:10:57.205Z,2380.00
2023-04-25T09:11:57.294Z,1787.00
2023-04-25T09:12:57.322Z,1963.00
2023-04-25T09:13:57.280Z,1627.00
2023-04-25T09:14:57.312Z,1497.00
2023-04-25T09:15:57.394Z,1203.00
2023-04-25T09:16:58.005Z,1047.00
2023-04-25T09:17:57.511Z,893.00
2023-04-25T09:18:57.515Z,949.00
2023-04-25T09:19:57.550Z,683.00
2023-04-25T09:21:01.891Z,628.00
2023-04-25T09:21:57.554Z,628.00
2023-04-25T09:22:57.575Z,629.00
2023-04-25T09:23:57.520Z,619.00
2023-04-25T09:24:57.517Z,642.00
2023-04-25T09:25:57.507Z,668.00
2023-04-25T09:26:57.528Z,779.00
2023-04-25T09:27:57.461Z,644.00
2023-04-25T09:28:57.454Z,607.00
2023-04-25T09:29:57.432Z,546.00
2023-04-25T09:30:57.410Z,542.00
2023-04-25T09:31:57.454Z,542.00
2023-04-25T09:32:57.426Z,507.00
2023-04-25T09:33:57.387Z,552.00
2023-04-25T09:34:57.345Z,562.00
2023-04-25T09:35:57.365Z,639.00
2023-04-25T09:36:57.452Z,642.00
2023-04-25T09:37:57.973Z,694.00
2023-04-25T09:38:57.538Z,769.00
2023-04-25T09:39:57.580Z,861.00
2023-04-25T09:40:57.637Z,1126.00
2023-04-25T09:41:57.674Z,1245.00
2023-04-25T09:42:57.963Z,1111.00
2023-04-25T09:43:58.012Z,1172.00
2023-04-25T09:44:57.801Z,1197.00
2023-04-25T09:45:59.070Z,1130.00
2023-04-25T09:46:57.863Z,1126.00
2023-04-25T09:47:57.987Z,1085.00
2023-04-25T09:48:57.947Z,947.00
2023-04-25T09:49:57.973Z,915.00
2023-04-25T09:50:58.037Z,907.00
2023-04-25T09:51:58.078Z,840.00
2023-04-25T09:52:58.126Z,778.00
2023-04-25T09:53:58.177Z,774.00
2023-04-25T09:54:58.208Z,760.00
2023-04-25T09:55:58.248Z,744.00
2023-04-25T09:56:58.325Z,650.00
2023-04-25T09:57:58.470Z,633.00
2023-04-25T09:58:58.300Z,589.00
2023-04-25T09:59:58.280Z,596.00
2023-04-25T10:00:58.330Z,587.00
2023-04-25T10:01:58.320Z,594.00
2023-04-25T10:02:58.315Z,599.00
2023-04-25T10:03:58.396Z,605.00
2023-04-25T10:04:58.431Z,590.00
2023-04-25T10:05:58.275Z,588.00
2023-04-25T10:06:58.294Z,588.00
2023-04-25T10:07:58.328Z,572.00
2023-04-25T10:08:58.353Z,538.00
2023-04-25T10:09:58.329Z,523.00
2023-04-25T10:10:58.376Z,501.00
2023-04-25T10:11:58.449Z,502.00
2023-04-25T10:12:58.397Z,505.00
2023-04-25T10:13:58.462Z,503.00
2023-04-25T10:14:58.491Z,508.00
2023-04-25T10:15:58.519Z,518.00
2023-04-25T10:16:58.522Z,518.00
2023-04-25T10:17:58.537Z,543.00
2023-04-25T10:18:58.588Z,554.00
2023-04-25T10:19:58.625Z,556.00
2023-04-25T10:20:58.585Z,555.00
2023-04-25T10:21:58.590Z,556.00
2023-04-25T10:22:58.635Z,570.00
2023-04-25T10:23:58.636Z,575.00
2023-04-25T10:24:58.655Z,548.00
2023-04-25T10:25:58.731Z,556.00
2023-04-25T10:26:58.693Z,562.00
2023-04-25T10:27:58.738Z,547.00
2023-04-25T10:28:59.471Z,555.00
2023-04-25T10:29:58.729Z,558.00
2023-04-25T10:30:58.853Z,539.00
2023-04-25T10:31:58.798Z,524.00
2023-04-25T10:32:58.773Z,533.00
2023-04-25T10:33:58.779Z,546.00
2023-04-25T10:34:58.784Z,550.00
2023-04-25T10:35:58.763Z,564.00
2023-04-25T10:36:58.765Z,574.00
2023-04-25T10:37:58.960Z,594.00
2023-04-25T10:38:58.790Z,626.00
2023-04-25T10:39:58.821Z,698.00
2023-04-25T10:40:58.802Z,803.00
2023-04-25T10:41:58.850Z,900.00
2023-04-25T10:42:58.967Z,1176.00
2023-04-25T10:43:58.781Z,1259.00
2023-04-25T10:44:58.796Z,1347.00
2023-04-25T10:45:58.875Z,1469.00
2023-04-25T10:46:58.995Z,1560.00
2023-04-25T10:47:59.010Z,1668.00
2023-04-25T10:48:58.904Z,1721.00
2023-04-25T10:49:58.916Z,1772.00
2023-04-25T10:50:58.976Z,1857.00
2023-04-25T10:51:58.973Z,2013.00
2023-04-25T10:52:59.046Z,2015.00
2023-04-25T10:53:59.459Z,2087.00
2023-04-25T10:54:59.123Z,2103.00
2023-04-25T10:55:59.175Z,2144.00
2023-04-25T10:56:59.219Z,2269.00
2023-04-25T10:57:59.552Z,2330.00
2023-04-25T10:58:59.550Z,2364.00
2023-04-25T10:59:59.312Z,2493.00
2023-04-25T11:00:59.317Z,2483.00
2023-04-25T11:01:59.415Z,2575.00
2023-04-25T11:02:59.533Z,2560.00
2023-04-25T11:03:59.900Z,2613.00
2023-04-25T11:04:59.451Z,2528.00
2023-04-25T11:05:59.444Z,2587.00
2023-04-25T11:08:07.779Z,2644.00
2023-04-25T11:09:00.846Z,2524.00
2023-04-25T11:09:59.475Z,2513.00
2023-04-25T11:10:59.351Z,2452.00
2023-04-25T11:11:59.425Z,2418.00
2023-04-25T11:12:59.342Z,2311.00
2023-04-25T11:13:59.274Z,2759.00
2023-04-25T11:14:59.206Z,3508.00
2023-04-25T11:16:07.397Z,2727.00
2023-04-25T11:18:00.248Z,2708.00
2023-04-25T11:18:59.499Z,2641.00
2023-04-25T11:19:59.095Z,2570.00
2023-04-25T11:20:59.051Z,2615.00
2023-04-25T11:21:59.010Z,2501.00
2023-04-25T11:22:58.982Z,2445.00
2023-04-25T11:23:58.996Z,2527.00
2023-04-25T11:24:58.997Z,2664.00
2023-04-25T11:25:58.936Z,2599.00
2023-04-25T11:26:58.871Z,2543.00
2023-04-25T11:27:58.869Z,2679.00
2023-04-25T11:28:58.989Z,2662.00
2023-04-25T11:29:58.792Z,2974.00
2023-04-25T11:30:58.790Z,3063.00
2023-04-25T11:31:58.772Z,3144.00
2023-04-25T11:32:58.765Z,3140.00
2023-04-25T11:33:59.007Z,3160.00
2023-04-25T11:34:58.666Z,3175.00
2023-04-25T11:35:58.598Z,3173.00
2023-04-25T11:36:58.572Z,3176.00
2023-04-25T11:37:58.742Z,3185.00
2023-04-25T11:38:59.000Z,3192.00
2023-04-25T11:39:58.544Z,3206.00
2023-04-25T11:40:58.489Z,3196.00
2023-04-25T11:41:58.541Z,3197.00
2023-04-25T11:42:58.448Z,3189.00
2023-04-25T11:43:58.886Z,3184.00
2023-04-25T11:44:58.429Z,3205.00
2023-04-25T11:45:58.504Z,3184.00
2023-04-25T11:46:58.390Z,3176.00
2023-04-25T11:47:58.455Z,3166.00
2023-04-25T11:48:58.436Z,3160.00
2023-04-25T11:49:58.471Z,3161.00
2023-04-25T11:50:58.502Z,3145.00
2023-04-25T11:51:58.536Z,3158.00
2023-04-25T11:52:58.567Z,3150.00
2023-04-25T11:53:58.591Z,3123.00
2023-04-25T11:54:58.635Z,3111.00
2023-04-25T11:55:58.637Z,3113.00
2023-04-25T11:56:58.682Z,3102.00
2023-04-25T11:57:58.682Z,3103.00
2023-04-25T11:58:58.759Z,3087.00
2023-04-25T11:59:58.766Z,3092.00
2023-04-25T12:00:58.793Z,3072.00
2023-04-25T12:01:58.906Z,3062.00
2023-04-25T12:02:59.006Z,3062.00
2023-04-25T12:03:59.024Z,3048.00
2023-04-25T12:05:01.118Z,3051.00
2023-04-25T12:06:00.001Z,3053.00
2023-04-25T12:06:58.870Z,3052.00
2023-04-25T12:07:58.820Z,3060.00
2023-04-25T12:08:58.806Z,3057.00
2023-04-25T12:09:58.769Z,3057.00
2023-04-25T12:10:58.736Z,3057.00
2023-04-25T12:11:58.717Z,3050.00
2023-04-25T12:12:58.698Z,3038.00
2023-04-25T12:13:58.696Z,3038.00
2023-04-25T12:14:58.652Z,3039.00
2023-04-25T12:15:58.674Z,3039.00
2023-04-25T12:16:58.667Z,3018.00
2023-04-25T12:17:58.705Z,2973.00
2023-04-25T12:18:58.685Z,2937.00
2023-04-25T12:19:58.774Z,2914.00
2023-04-25T12:20:58.757Z,2866.00
2023-04-25T12:21:59.523Z,2868.00